Time;durP1;ratioP1;P1;durP2;ratioP2;P2;SDS_P1;SDS_P2;PMS_P1;PMS_P2;Temp;Humidity;BMP_temperature;BMP_pressure;BME280_temperature;BME280_humidity;BME280_pressure;Samples;Min_cycle;Max_cycle;Signal;HPM_P1;HPM_P2
2022/09/11 00:01:08;;;;;;;4.63;1.88;;;537.80;2406.40;;;;;;5074691;28;20103;-76
2022/09/11 00:03:35;;;;;;;4.90;2.42;;;537.80;2406.40;;;;;;5072005;28;20105;-77
2022/09/11 00:06:03;;;;;;;6.03;2.30;;;537.80;2406.40;;;;;;5073960;28;20423;-76
2022/09/11 00:08:30;;;;;;;4.22;2.78;;;537.80;2406.40;;;;;;5073132;28;20055;-76
2022/09/11 00:11:04;;;;;;;9.65;2.53;;;537.80;2406.40;;;;;;5077058;28;20431;-77
2022/09/11 00:13:30;;;;;;;3.78;1.90;;;537.70;2406.40;;;;;;5084778;28;20454;-76
2022/09/11 00:15:56;;;;;;;5.68;2.40;;;537.70;2406.40;;;;;;5072606;28;20032;-76
2022/09/11 00:18:22;;;;;;;4.43;2.00;;;537.70;2406.40;;;;;;5073790;28;20409;-76
2022/09/11 00:20:55;;;;;;;8.05;2.47;;;512.90;2380.80;;;;;;5075809;28;20078;-76
2022/09/11 00:23:24;;;;;;;5.45;2.65;;;512.90;2380.80;;;;;;5075240;28;20428;-76
2022/09/11 00:25:49;;;;;;;6.45;2.88;;;537.60;2406.40;;;;;;5072893;28;20078;-77
2022/09/11 00:28:22;;;;;;;5.82;2.58;;;512.90;2380.80;;;;;;5078080;28;20024;-76
2022/09/11 00:31:00;;;;;;;8.18;2.80;;;512.90;2380.80;;;;;;5083111;28;20029;-76
2022/09/11 00:33:27;;;;;;;7.60;3.00;;;512.90;2380.80;;;;;;5071274;28;20054;-76
2022/09/11 00:36:20;;;;;;;5.93;2.92;;;512.90;2380.80;;;;;;5075458;28;20028;-76
2022/09/11 00:38:48;;;;;;;9.30;3.40;;;512.90;2380.80;;;;;;5073223;28;20042;-76
2022/09/11 00:41:34;;;;;;;5.25;2.47;;;512.90;2380.80;;;;;;5072713;28;20017;-75
2022/09/11 00:44:14;;;;;;;6.07;2.85;;;512.90;2380.80;;;;;;5079601;28;20061;-77
2022/09/11 00:46:55;;;;;;;8.82;3.25;;;512.80;2380.80;;;;;;5076968;28;20066;-76
2022/09/11 00:49:30;;;;;;;10.07;4.65;;;512.80;2380.80;;;;;;5071545;28;20043;-77
2022/09/11 00:52:12;;;;;;;8.18;4.82;;;512.80;2380.80;;;;;;5070312;28;20031;-77
2022/09/11 00:54:50;;;;;;;11.88;5.32;;;512.70;2380.80;;;;;;5070767;28;20016;-76
2022/09/11 00:57:20;;;;;;;6.82;3.67;;;512.60;2380.80;;;;;;5070564;28;20086;-76
2022/09/11 00:59:46;;;;;;;5.25;3.08;;;512.60;2380.80;;;;;;5072215;28;20016;-76
2022/09/11 01:02:17;;;;;;;6.20;3.05;;;512.90;2380.80;;;;;;5072395;28;20020;-76
2022/09/11 01:04:43;;;;;;;5.72;3.05;;;512.50;2380.80;;;;;;5073253;28;20054;-77
2022/09/11 01:07:11;;;;;;;5.10;2.88;;;512.40;2380.80;;;;;;5071961;28;20524;-76
2022/09/11 01:09:37;;;;;;;8.55;3.22;;;512.40;2380.80;;;;;;5073983;28;20103;-78
2022/09/11 01:12:09;;;;;;;9.60;3.08;;;512.30;2380.80;;;;;;5076495;28;20458;-76
2022/09/11 01:14:46;;;;;;;7.53;2.92;;;512.30;2380.80;;;;;;5072736;28;20024;-77
2022/09/11 01:17:20;;;;;;;5.15;2.58;;;512.20;2380.80;;;;;;5069975;28;20052;-76
2022/09/11 01:20:14;;;;;;;5.85;2.63;;;512.00;2380.80;;;;;;5072505;28;20087;-76
2022/09/11 01:23:23;;;;;;;6.50;2.97;;;512.00;2380.80;;;;;;5076224;28;20017;-76
2022/09/11 01:25:52;;;;;;;5.55;2.60;;;487.30;2380.80;;;;;;5069017;28;20020;-76
2022/09/11 01:28:51;;;;;;;7.40;3.13;;;487.30;2380.80;;;;;;5072150;28;20074;-76
2022/09/11 01:31:22;;;;;;;7.10;2.80;;;487.30;2380.80;;;;;;5047451;28;20029;-77
2022/09/11 01:34:01;;;;;;;6.63;2.63;;;487.30;2380.80;;;;;;5077130;28;20465;-76
2022/09/11 01:36:45;;;;;;;7.57;2.70;;;487.30;2380.80;;;;;;5071410;28;20078;-75
2022/09/11 01:39:12;;;;;;;4.53;2.45;;;487.30;2380.80;;;;;;5069381;28;20033;-76
2022/09/11 01:42:01;;;;;;;6.57;2.80;;;512.00;2380.80;;;;;;5069852;28;20470;-76
2022/09/11 01:44:49;;;;;;;6.75;2.83;;;487.30;2380.80;;;;;;5076727;28;20012;-76
2022/09/11 01:47:18;;;;;;;6.47;2.90;;;487.30;2380.80;;;;;;5069157;28;20024;-76
2022/09/11 01:49:49;;;;;;;8.35;2.70;;;512.00;2380.80;;;;;;5073987;28;20481;-77
2022/09/11 01:52:19;;;;;;;7.85;3.17;;;512.00;2380.80;;;;;;5069340;28;20042;-75
2022/09/11 01:54:50;;;;;;;8.00;3.60;;;512.10;2380.80;;;;;;5095118;28;20024;-76
2022/09/11 01:57:46;;;;;;;5.57;2.78;;;512.00;2380.80;;;;;;5068811;28;20110;-76
2022/09/11 02:00:13;;;;;;;12.23;3.40;;;487.30;2380.80;;;;;;5071817;28;20070;-76
2022/09/11 02:02:43;;;;;;;6.15;3.05;;;487.30;2380.80;;;;;;5071109;28;20382;-76
2022/09/11 02:05:40;;;;;;;6.55;2.85;;;487.30;2380.80;;;;;;5071187;28;20474;-75
2022/09/11 02:08:12;;;;;;;6.35;2.70;;;487.30;2380.80;;;;;;5073320;28;20020;-76
2022/09/11 02:11:02;;;;;;;6.28;3.15;;;512.00;2380.80;;;;;;5077672;28;20016;-77
2022/09/11 02:13:33;;;;;;;7.43;2.80;;;512.10;2380.80;;;;;;5071102;28;20095;-76
2022/09/11 02:16:15;;;;;;;5.18;2.65;;;512.00;2380.80;;;;;;5077924;28;20033;-76
2022/09/11 02:18:51;;;;;;;9.75;2.88;;;512.10;2380.80;;;;;;5074286;28;20040;-76
2022/09/11 02:21:17;;;;;;;5.65;2.70;;;512.10;2380.80;;;;;;5075811;28;20024;-76
2022/09/11 02:23:44;;;;;;;9.15;2.75;;;512.10;2380.80;;;;;;5077790;28;20024;-76
2022/09/11 02:26:12;;;;;;;6.15;2.53;;;512.00;2380.80;;;;;;5076248;28;20021;-76
2022/09/11 02:28:38;;;;;;;5.57;2.50;;;512.00;2380.80;;;;;;5077774;28;20044;-76
2022/09/11 02:31:06;;;;;;;5.45;1.98;;;487.30;2380.80;;;;;;5074821;28;20098;-77
2022/09/11 02:33:36;;;;;;;4.95;2.00;;;487.30;2380.80;;;;;;5080407;28;20017;-76
2022/09/11 02:36:28;;;;;;;6.45;2.50;;;512.00;2380.80;;;;;;5075901;28;20032;-77
2022/09/11 02:39:31;;;;;;;3.63;1.80;;;487.30;2380.80;;;;;;5074763;28;20024;-76
2022/09/11 02:42:53;;;;;;;7.47;2.08;;;487.20;2380.80;;;;;;5075075;28;20081;-76
2022/09/11 02:45:40;;;;;;;6.60;1.70;;;487.20;2380.80;;;;;;5058173;28;20016;-76
2022/09/11 02:48:23;;;;;;;5.68;2.15;;;487.20;2380.80;;;;;;5081810;28;20024;-77
2022/09/11 02:51:08;;;;;;;3.38;1.95;;;487.10;2380.80;;;;;;5083516;28;20036;-76
2022/09/11 02:53:45;;;;;;;4.22;1.67;;;487.00;2380.80;;;;;;5081514;28;20098;-77
2022/09/11 02:56:42;;;;;;;8.77;2.63;;;487.00;2380.80;;;;;;5083280;28;20036;-79
2022/09/11 02:59:16;;;;;;;6.38;2.33;;;487.00;2380.80;;;;;;5080344;28;20044;-76
2022/09/11 03:01:58;;;;;;;4.68;1.88;;;487.00;2380.80;;;;;;5080586;28;20035;-76
2022/09/11 03:04:24;;;;;;;6.50;2.53;;;486.90;2380.80;;;;;;5083325;28;20039;-77
2022/09/11 03:06:52;;;;;;;5.15;2.13;;;486.80;2380.80;;;;;;5083179;28;20027;-76
2022/09/11 03:09:18;;;;;;;8.35;2.38;;;486.80;2380.80;;;;;;5081564;28;20083;-75
2022/09/11 03:11:44;;;;;;;4.07;2.10;;;486.80;2380.80;;;;;;5064485;28;20437;-76
2022/09/11 03:14:11;;;;;;;6.10;2.13;;;;;;;;;;5080468;28;20818;-76
2022/09/11 03:16:37;;;;;;;6.13;2.45;;;486.80;2380.80;;;;;;5079721;28;20074;-76
2022/09/11 03:19:04;;;;;;;3.63;2.08;;;486.80;2380.80;;;;;;5076070;28;20032;-76
2022/09/11 03:21:30;;;;;;;4.35;2.10;;;486.80;2380.80;;;;;;5072937;28;20029;-75
2022/09/11 03:23:56;;;;;;;5.35;2.45;;;486.80;2380.80;;;;;;5072880;28;20016;-76
2022/09/11 03:26:23;;;;;;;5.30;2.15;;;486.80;2380.80;;;;;;5075230;28;20375;-76
2022/09/11 03:28:52;;;;;;;4.55;2.00;;;;;;;;;;5079820;28;20066;-77
2022/09/11 03:31:18;;;;;;;6.07;2.28;;;486.90;2380.80;;;;;;5071831;28;20022;-75
2022/09/11 03:33:44;;;;;;;3.30;2.05;;;487.00;2380.80;;;;;;5075352;28;20104;-77
2022/09/11 03:36:11;;;;;;;4.25;1.83;;;487.10;2380.80;;;;;;5071424;28;20115;-76
2022/09/11 03:38:37;;;;;;;4.63;2.00;;;487.10;2380.80;;;;;;5068662;28;20048;-77
2022/09/11 03:41:03;;;;;;;5.90;2.33;;;;;;;;;;5096730;28;20060;-77
2022/09/11 03:43:29;;;;;;;3.25;1.70;;;487.10;2380.80;;;;;;5074859;28;20100;-76
2022/09/11 03:45:55;;;;;;;3.80;2.15;;;487.20;2380.80;;;;;;5067849;28;20029;-77
2022/09/11 03:48:21;;;;;;;9.18;2.20;;;487.10;2380.80;;;;;;5076136;28;20531;-77
2022/09/11 03:50:47;;;;;;;4.25;2.13;;;487.10;2380.80;;;;;;5074784;28;20502;-78
2022/09/11 03:53:13;;;;;;;2.55;1.50;;;487.10;2380.80;;;;;;5079032;28;20024;-77
2022/09/11 03:55:39;;;;;;;3.63;1.75;;;487.10;2380.80;;;;;;5076932;28;20024;-77
2022/09/11 03:58:08;;;;;;;4.80;2.00;;;487.10;2380.80;;;;;;5077124;28;20028;-77
2022/09/11 04:00:37;;;;;;;10.60;2.80;;;487.20;2380.80;;;;;;5091848;28;20031;-77
2022/09/11 04:03:03;;;;;;;10.30;2.50;;;487.20;2380.80;;;;;;5076879;28;20504;-77
2022/09/11 04:05:29;;;;;;;3.20;2.10;;;487.20;2380.80;;;;;;5073342;28;20087;-77
2022/09/11 04:07:54;;;;;;;4.03;2.30;;;487.20;2380.80;;;;;;5071335;28;20024;-77
2022/09/11 04:10:20;;;;;;;4.25;2.47;;;487.20;2380.80;;;;;;5083016;28;20024;-77
2022/09/11 04:12:46;;;;;;;4.22;2.47;;;487.20;2380.80;;;;;;5077031;28;20050;-77
2022/09/11 04:15:13;;;;;;;5.10;2.22;;;487.20;2380.80;;;;;;5070237;28;20021;-76
2022/09/11 04:17:38;;;;;;;3.78;2.35;;;487.10;2380.80;;;;;;5041587;28;1203043;-77
2022/09/11 04:20:05;;;;;;;4.43;2.17;;;487.20;2380.80;;;;;;5088888;28;20051;-77
2022/09/11 04:22:31;;;;;;;3.78;2.17;;;487.20;2380.80;;;;;;5074860;28;20492;-77
2022/09/11 04:24:57;;;;;;;6.07;2.75;;;487.20;2380.80;;;;;;5084194;28;20021;-77
2022/09/11 04:27:23;;;;;;;4.28;2.60;;;487.20;2380.80;;;;;;5081875;28;20032;-77
2022/09/11 04:29:49;;;;;;;5.45;2.88;;;487.10;2380.80;;;;;;5078416;28;20028;-77
2022/09/11 04:32:15;;;;;;;4.32;2.20;;;487.00;2380.80;;;;;;5077989;28;20027;-78
2022/09/11 04:34:41;;;;;;;3.45;1.95;;;487.10;2380.80;;;;;;5076970;28;20028;-77
2022/09/11 04:37:07;;;;;;;7.65;2.55;;;487.10;2380.80;;;;;;5092787;28;20032;-77
2022/09/11 04:39:34;;;;;;;4.30;1.90;;;487.10;2380.80;;;;;;5078111;28;20543;-76
2022/09/11 04:42:01;;;;;;;8.05;2.63;;;487.10;2380.80;;;;;;5078957;28;20036;-78
2022/09/11 04:44:28;;;;;;;6.72;1.88;;;487.20;2380.80;;;;;;5072432;28;20020;-76
2022/09/11 04:46:55;;;;;;;5.25;2.30;;;487.10;2380.80;;;;;;5077990;28;20032;-76
2022/09/11 04:49:21;;;;;;;5.38;1.85;;;487.10;2380.80;;;;;;5087516;28;20024;-76
2022/09/11 04:51:46;;;;;;;4.95;2.38;;;487.10;2380.80;;;;;;5079886;28;20016;-76
2022/09/11 04:54:15;;;;;;;4.15;2.00;;;487.20;2380.80;;;;;;5074905;28;20024;-75
2022/09/11 04:56:40;;;;;;;12.73;2.65;;;487.10;2380.80;;;;;;5072524;28;20028;-76
2022/09/11 04:59:18;;;;;;;5.03;2.33;;;487.00;2380.80;;;;;;5090321;28;20016;-76
2022/09/11 05:01:45;;;;;;;3.00;2.10;;;487.00;2380.80;;;;;;5081998;28;20374;-75
2022/09/11 05:04:15;;;;;;;4.28;1.80;;;487.00;2380.80;;;;;;5073428;28;20390;-74
2022/09/11 05:06:44;;;;;;;7.47;2.25;;;487.00;2380.80;;;;;;5070730;28;20456;-78
2022/09/11 05:09:10;;;;;;;6.57;2.45;;;487.00;2380.80;;;;;;5087786;28;20028;-77
2022/09/11 05:11:39;;;;;;;3.63;2.03;;;487.00;2380.80;;;;;;5089211;28;20027;-76
2022/09/11 05:14:06;;;;;;;3.58;1.90;;;487.00;2380.80;;;;;;5070528;28;20477;-76
2022/09/11 05:16:33;;;;;;;4.72;2.10;;;487.00;2380.80;;;;;;5074713;28;20102;-77
2022/09/11 05:19:00;;;;;;;4.93;2.20;;;487.10;2380.80;;;;;;5076474;28;20032;-78
2022/09/11 05:21:27;;;;;;;6.43;2.10;;;487.20;2380.80;;;;;;5072839;28;20055;-78
2022/09/11 05:23:54;;;;;;;4.50;1.90;;;487.20;2380.80;;;;;;5074140;28;20025;-78
2022/09/11 05:26:26;;;;;;;2.30;1.77;;;487.00;2380.80;;;;;;5074415;28;20024;-78
2022/09/11 05:28:57;;;;;;;3.45;2.00;;;487.00;2380.80;;;;;;5076901;28;20027;-79
2022/09/11 05:31:27;;;;;;;6.45;1.90;;;487.00;2380.80;;;;;;5073093;28;20494;-79
2022/09/11 05:33:59;;;;;;;4.10;1.90;;;487.00;2380.80;;;;;;5068274;28;20099;-81
2022/09/11 05:36:26;;;;;;;4.63;2.00;;;487.00;2380.80;;;;;;5071268;28;20123;-77
2022/09/11 05:38:52;;;;;;;4.22;2.05;;;487.20;2380.80;;;;;;5082850;28;20051;-77
2022/09/11 05:41:19;;;;;;;5.25;1.70;;;487.10;2380.80;;;;;;5071781;28;20032;-78
2022/09/11 05:43:45;;;;;;;3.08;1.98;;;487.20;2380.80;;;;;;5085260;28;20137;-79
2022/09/11 05:46:13;;;;;;;3.90;1.67;;;487.20;2380.80;;;;;;5076958;28;20052;-78
2022/09/11 05:48:39;;;;;;;4.22;2.03;;;487.10;2380.80;;;;;;5070072;28;20035;-78
2022/09/11 05:51:09;;;;;;;3.53;1.80;;;487.20;2380.80;;;;;;5073722;28;20090;-78
2022/09/11 05:53:36;;;;;;;4.47;1.63;;;;;;;;;;5071876;28;20036;-77
2022/09/11 05:56:10;;;;;;;4.43;1.75;;;;;;;;;;5090742;28;20085;-77
2022/09/11 05:58:36;;;;;;;2.83;1.33;;;487.00;2380.80;;;;;;5090493;28;20020;-79
2022/09/11 06:01:10;;;;;;;3.90;1.70;;;487.20;2380.80;;;;;;5091046;28;20446;-77
2022/09/11 06:03:36;;;;;;;5.97;1.60;;;487.30;2380.80;;;;;;5087384;28;20035;-77
2022/09/11 06:06:04;;;;;;;4.15;1.80;;;487.30;2380.80;;;;;;5068595;28;20016;-76
2022/09/11 06:08:30;;;;;;;6.18;1.83;;;512.10;2380.80;;;;;;5076416;28;20070;-77
2022/09/11 06:10:57;;;;;;;3.78;2.00;;;512.20;2380.80;;;;;;5097169;28;20029;-78
2022/09/11 06:13:27;;;;;;;8.13;1.92;;;512.40;2380.80;;;;;;5078710;28;20680;-79
2022/09/11 06:15:53;;;;;;;3.58;1.75;;;512.20;2380.80;;;;;;5071824;28;20052;-78
2022/09/11 06:18:19;;;;;;;5.43;2.65;;;512.20;2380.80;;;;;;5075065;28;20399;-80
2022/09/11 06:21:01;;;;;;;5.40;1.80;;;512.30;2380.80;;;;;;5078201;28;20028;-77
2022/09/11 06:23:27;;;;;;;4.05;2.17;;;512.40;2380.80;;;;;;5079907;28;20024;-78
2022/09/11 06:25:53;;;;;;;3.20;1.80;;;512.50;2380.80;;;;;;5071510;28;20028;-77
2022/09/11 06:28:22;;;;;;;5.75;1.88;;;512.50;2380.80;;;;;;5074042;28;20017;-76
2022/09/11 06:30:51;;;;;;;3.15;1.70;;;512.40;2380.80;;;;;;5073102;28;20078;-78
2022/09/11 06:33:20;;;;;;;5.13;2.05;;;512.60;2380.80;;;;;;5077303;28;20016;-78
2022/09/11 06:36:00;;;;;;;4.95;1.95;;;512.60;2380.80;;;;;;5072057;28;20031;-78
2022/09/11 06:38:26;;;;;;;3.42;1.80;;;512.70;2380.80;;;;;;5072273;28;20024;-78
2022/09/11 06:40:53;;;;;;;4.63;2.00;;;;;;;;;;5074021;28;20028;-78
2022/09/11 06:43:19;;;;;;;5.07;2.55;;;512.60;2380.80;;;;;;5074282;28;20021;-78
2022/09/11 06:45:48;;;;;;;3.30;1.73;;;512.90;2380.80;;;;;;5070604;28;20143;-77
2022/09/11 06:48:15;;;;;;;2.30;1.52;;;537.60;2406.40;;;;;;5073483;28;20470;-77
2022/09/11 06:50:42;;;;;;;6.03;2.35;;;537.70;2406.40;;;;;;5076653;28;20033;-79
2022/09/11 06:53:09;;;;;;;8.57;1.80;;;537.70;2406.40;;;;;;5084971;28;20027;-78
2022/09/11 06:55:35;;;;;;;4.65;1.58;;;537.60;2406.40;;;;;;5075420;28;20155;-78
2022/09/11 06:58:03;;;;;;;3.90;1.85;;;537.70;2406.40;;;;;;5082320;28;20051;-78
2022/09/11 07:00:29;;;;;;;4.80;1.30;;;537.80;2406.40;;;;;;5076816;28;20024;-79
2022/09/11 07:02:55;;;;;;;137.00;11.25;;;537.80;2406.40;;;;;;5073797;28;20029;-79
2022/09/11 07:05:22;;;;;;;56.22;7.15;;;538.00;2406.40;;;;;;5089051;28;20031;-78
2022/09/11 07:07:52;;;;;;;3.15;1.40;;;538.20;2406.40;;;;;;5094049;28;20024;-79
2022/09/11 07:10:18;;;;;;;1.98;1.13;;;538.30;2406.40;;;;;;5095115;28;20099;-79
2022/09/11 07:12:44;;;;;;;4.13;1.27;;;563.20;2432.00;;;;;;5093507;28;20516;-80
2022/09/11 07:15:10;;;;;;;3.13;1.45;;;563.40;2432.00;;;;;;5095016;28;20028;-79
2022/09/11 07:17:36;;;;;;;5.45;1.27;;;563.50;2432.00;;;;;;5092099;28;20107;-78
2022/09/11 07:20:07;;;;;;;3.28;1.30;;;563.50;2432.00;;;;;;5093764;28;20020;-78
2022/09/11 07:22:35;;;;;;;7.82;1.35;;;563.50;2432.00;;;;;;5095156;28;20044;-80
2022/09/11 07:25:02;;;;;;;3.95;1.55;;;563.70;2432.00;;;;;;5090316;28;20021;-79
2022/09/11 07:27:30;;;;;;;2.38;1.13;;;563.70;2432.00;;;;;;5085510;28;20028;-78
2022/09/11 07:29:56;;;;;;;2.63;1.00;;;563.80;2432.00;;;;;;5093015;28;20393;-78
2022/09/11 07:32:22;;;;;;;2.15;1.23;;;563.70;2432.00;;;;;;5093484;28;20039;-78
2022/09/11 07:34:48;;;;;;;3.45;1.15;;;563.70;2432.00;;;;;;5093212;28;20460;-79
2022/09/11 07:37:14;;;;;;;1.50;1.00;;;564.00;2432.00;;;;;;5094565;28;20028;-78
2022/09/11 07:39:41;;;;;;;2.35;1.02;;;564.00;2432.00;;;;;;5093121;28;20064;-78
2022/09/11 07:42:07;;;;;;;3.28;1.02;;;564.10;2432.00;;;;;;5093321;28;20025;-87
2022/09/11 07:44:33;;;;;;;3.72;1.30;;;564.10;2432.00;;;;;;5093404;28;20024;-80
2022/09/11 07:47:02;;;;;;;2.00;1.27;;;564.10;2432.00;;;;;;5089580;28;20031;-80
2022/09/11 07:49:27;;;;;;;1.85;1.00;;;564.10;2432.00;;;;;;5082889;28;20477;-77
2022/09/11 07:51:54;;;;;;;2.22;1.08;;;564.10;2432.00;;;;;;5092985;28;20028;-77
2022/09/11 07:54:20;;;;;;;1.70;1.00;;;564.10;2432.00;;;;;;5093123;28;20023;-77
2022/09/11 07:56:47;;;;;;;3.15;1.23;;;564.10;2432.00;;;;;;5092632;28;20473;-76
2022/09/11 07:59:12;;;;;;;2.55;1.40;;;564.10;2432.00;;;;;;5092778;28;20117;-81
2022/09/11 08:01:39;;;;;;;2.25;1.10;;;564.10;2432.00;;;;;;5092583;28;20035;-78
2022/09/11 08:04:06;;;;;;;1.40;1.08;;;564.10;2432.00;;;;;;5078479;28;20020;-76
2022/09/11 08:06:34;;;;;;;2.13;1.10;;;564.10;2432.00;;;;;;5092667;28;20119;-75
2022/09/11 08:09:05;;;;;;;3.10;1.08;;;564.10;2432.00;;;;;;5092802;28;20066;-76
2022/09/11 08:11:36;;;;;;;1.60;1.00;;;588.90;2432.00;;;;;;5091360;28;20075;-75
2022/09/11 08:14:02;;;;;;;2.08;0.98;;;588.90;2406.40;;;;;;5080358;28;20020;-75
2022/09/11 08:16:28;;;;;;;1.67;1.00;;;589.00;2432.00;;;;;;5078802;28;20489;-79
2022/09/11 08:18:55;;;;;;;3.03;1.33;;;589.00;2432.00;;;;;;5077752;28;20035;-81
2022/09/11 08:21:22;;;;;;;2.30;1.08;;;589.10;2406.40;;;;;;5094730;28;20047;-80
2022/09/11 08:23:48;;;;;;;1.88;0.88;;;589.20;2329.60;;;;;;5095876;28;20104;-79
2022/09/11 08:26:20;;;;;;;1.58;1.08;;;589.20;2304.00;;;;;;5075196;28;20054;-76
2022/09/11 08:28:49;;;;;;;3.90;1.25;;;589.20;2355.20;;;;;;5077104;28;20116;-79
2022/09/11 08:31:16;;;;;;;2.13;0.93;;;589.20;2304.00;;;;;;5072066;28;20429;-79
2022/09/11 08:33:42;;;;;;;2.15;1.20;;;589.20;2355.20;;;;;;5072131;28;20479;-79
2022/09/11 08:36:09;;;;;;;2.25;1.10;;;589.30;2355.20;;;;;;5072374;28;20044;-78
2022/09/11 08:38:37;;;;;;;3.53;1.33;;;589.50;2278.40;;;;;;5093822;28;20023;-79
2022/09/11 08:41:31;;;;;;;1.55;0.80;;;589.50;2252.80;;;;;;5091430;28;20053;-78
2022/09/11 08:44:02;;;;;;;2.63;0.80;;;589.60;2073.60;;;;;;5074224;28;20039;-80
2022/09/11 08:46:41;;;;;;;5.20;1.00;;;589.70;2099.20;;;;;;5081139;28;20027;-82
2022/09/11 08:49:50;;;;;;;2.33;1.08;;;614.40;2150.40;;;;;;5071136;28;20547;-83
2022/09/11 08:52:16;;;;;;;3.42;0.93;;;614.40;2227.20;;;;;;5070511;28;20024;-79
2022/09/11 08:54:44;;;;;;;1.75;0.65;;;614.50;2022.40;;;;;;5054253;28;20024;-79
2022/09/11 08:57:27;;;;;;;2.80;1.13;;;614.60;1971.20;;;;;;5055906;28;20041;-77
2022/09/11 09:00:11;;;;;;;1.58;0.80;;;614.60;1945.60;;;;;;5042215;28;20063;-79
2022/09/11 09:02:57;;;;;;;4.03;1.17;;;614.60;1996.80;;;;;;5070376;28;20733;-78
2022/09/11 09:05:38;;;;;;;3.53;1.20;;;614.80;2022.40;;;;;;5063591;28;20157;-79
2022/09/11 09:08:20;;;;;;;1.25;0.80;;;614.60;1945.60;;;;;;5045589;28;20055;-79
2022/09/11 09:10:46;;;;;;;1.88;0.93;;;614.60;2022.40;;;;;;5075395;28;20036;-79
2022/09/11 09:13:56;;;;;;;2.67;1.15;;;614.50;2048.00;;;;;;5052503;28;20020;-76
2022/09/11 09:16:28;;;;;;;2.00;1.05;;;614.50;1996.80;;;;;;4992142;28;20053;-79
2022/09/11 09:19:38;;;;;;;3.03;1.13;;;614.40;1971.20;;;;;;5000801;28;20050;-79
2022/09/11 09:22:15;;;;;;;2.30;1.02;;;589.70;2022.40;;;;;;4910590;29;20049;-79
2022/09/11 09:24:47;;;;;;;4.80;1.35;;;589.70;2022.40;;;;;;4930808;29;20546;-79
2022/09/11 09:27:43;;;;;;;2.67;0.85;;;589.70;2022.40;;;;;;4932105;29;20530;-80
2022/09/11 09:30:18;;;;;;;5.47;1.20;;;589.60;1996.80;;;;;;4945105;29;20071;-79
2022/09/11 09:33:05;;;;;;;2.55;1.30;;;589.50;2073.60;;;;;;4935899;29;20043;-80
2022/09/11 09:35:42;;;;;;;3.75;1.70;;;589.50;2073.60;;;;;;4935867;29;20030;-79
2022/09/11 09:38:11;;;;;;;5.03;2.85;;;589.50;2073.60;;;;;;4951967;29;20039;-79
2022/09/11 09:40:43;;;;;;;4.43;2.60;;;589.30;2099.20;;;;;;4941966;29;20028;-79
2022/09/11 09:43:14;;;;;;;2.80;1.30;;;589.30;2124.80;;;;;;4932187;29;20071;-79
2022/09/11 09:46:04;;;;;;;2.15;1.15;;;589.30;2150.40;;;;;;4930086;29;20122;-79
2022/09/11 09:48:33;;;;;;;3.25;1.50;;;589.30;2176.00;;;;;;4932598;29;20035;-79
2022/09/11 09:51:02;;;;;;;3.10;1.30;;;589.30;2150.40;;;;;;4954541;28;20035;-79
2022/09/11 09:53:34;;;;;;;2.95;1.15;;;589.20;2150.40;;;;;;4983837;28;20053;-75
2022/09/11 09:56:03;;;;;;;3.00;1.65;;;589.30;2252.80;;;;;;5025477;28;20048;-79
2022/09/11 09:58:38;;;;;;;2.28;0.93;;;589.30;2329.60;;;;;;5069811;28;20032;-79
2022/09/11 10:01:44;;;;;;;3.60;1.73;;;589.30;2278.40;;;;;;5070953;28;20016;-79
2022/09/11 10:04:30;;;;;;;5.88;2.00;;;589.50;2329.60;;;;;;5076364;28;20023;-78
2022/09/11 10:07:12;;;;;;;4.88;2.05;;;589.60;2304.00;;;;;;5072255;28;20024;-79
2022/09/11 10:09:51;;;;;;;1.83;1.05;;;589.60;2304.00;;;;;;5073853;28;20051;-79
2022/09/11 10:12:30;;;;;;;5.45;3.00;;;589.60;2227.20;;;;;;5071426;28;20370;-78
2022/09/11 10:14:59;;;;;;;3.38;1.20;;;589.60;2150.40;;;;;;5100362;28;20028;-79
2022/09/11 10:17:28;;;;;;;7.85;1.90;;;589.60;2201.60;;;;;;5080816;28;20044;-78
2022/09/11 10:19:56;;;;;;;4.38;2.35;;;589.70;2227.20;;;;;;5077197;28;20041;-79
2022/09/11 10:22:28;;;;;;;3.78;1.98;;;589.60;2201.60;;;;;;5075967;28;20371;-79
2022/09/11 10:25:04;;;;;;;5.28;2.20;;;589.60;2201.60;;;;;;5073162;28;20100;-78
2022/09/11 10:27:37;;;;;;;3.97;1.60;;;589.70;2150.40;;;;;;5067228;28;20021;-79
2022/09/11 10:30:06;;;;;;;4.50;2.83;;;614.50;2124.80;;;;;;5076253;28;20347;-79
2022/09/11 10:32:37;;;;;;;5.78;2.25;;;614.60;2124.80;;;;;;5073155;28;20066;-80
2022/09/11 10:35:08;;;;;;;8.15;2.63;;;614.80;2099.20;;;;;;5074596;28;20074;-79
2022/09/11 10:37:34;;;;;;;8.20;2.00;;;614.80;2124.80;;;;;;5086519;28;20093;-80
2022/09/11 10:40:17;;;;;;;2.80;1.23;;;614.80;2048.00;;;;;;5095100;28;20028;-81
2022/09/11 10:42:45;;;;;;;5.95;1.50;;;614.80;2022.40;;;;;;5095933;28;20039;-81
2022/09/11 10:45:17;;;;;;;2.85;1.15;;;614.80;2048.00;;;;;;5095769;28;20023;-80
2022/09/11 10:47:47;;;;;;;2.60;0.95;;;614.60;2048.00;;;;;;5083307;28;20549;-81
2022/09/11 10:50:16;;;;;;;4.45;1.30;;;614.60;1971.20;;;;;;5093061;28;20119;-81
2022/09/11 10:52:50;;;;;;;3.33;1.25;;;614.60;2022.40;;;;;;5094748;28;20027;-80
2022/09/11 10:55:18;;;;;;;2.47;1.23;;;614.50;2073.60;;;;;;5095264;28;20056;-78
2022/09/11 10:57:56;;;;;;;2.88;1.23;;;614.40;2073.60;;;;;;5085393;28;20040;-80
2022/09/11 11:00:25;;;;;;;4.10;1.38;;;614.50;2048.00;;;;;;5090981;28;20480;-77
2022/09/11 11:02:56;;;;;;;1.77;0.98;;;614.40;2048.00;;;;;;5094823;28;20111;-80
2022/09/11 11:05:40;;;;;;;3.13;1.60;;;614.50;2099.20;;;;;;5078082;28;20028;-79
2022/09/11 11:08:14;;;;;;;2.88;1.48;;;614.50;2048.00;;;;;;5091153;28;20079;-79
2022/09/11 11:11:02;;;;;;;4.60;1.33;;;614.50;2073.60;;;;;;5085069;28;20029;-78
2022/09/11 11:13:45;;;;;;;6.10;1.70;;;614.50;2073.60;;;;;;5092336;28;20017;-78
2022/09/11 11:16:30;;;;;;;4.18;1.13;;;614.60;2073.60;;;;;;5075490;28;20119;-77
2022/09/11 11:19:22;;;;;;;4.68;1.60;;;614.50;2073.60;;;;;;5080213;28;20032;-78
2022/09/11 11:22:20;;;;;;;4.38;1.63;;;614.40;2048.00;;;;;;5094638;28;20408;-76
2022/09/11 11:25:00;;;;;;;3.95;1.58;;;614.40;2099.20;;;;;;5094043;28;20082;-78
2022/09/11 11:28:05;;;;;;;6.55;1.80;;;614.50;2124.80;;;;;;5074070;28;20040;-78
2022/09/11 11:30:35;;;;;;;6.30;3.00;;;614.40;2150.40;;;;;;5069707;28;20119;-74
2022/09/11 11:33:19;;;;;;;4.85;1.50;;;614.50;2227.20;;;;;;5080728;28;20107;-77
2022/09/11 11:35:59;;;;;;;1.55;1.20;;;614.50;2201.60;;;;;;5095958;28;20043;-77
2022/09/11 11:38:59;;;;;;;2.10;1.35;;;614.40;2150.40;;;;;;5075821;28;20128;-77
2022/09/11 11:42:02;;;;;;;4.22;1.25;;;614.40;2150.40;;;;;;5079836;28;20025;-81
2022/09/11 11:44:41;;;;;;;4.45;1.63;;;614.50;2150.40;;;;;;5081652;28;20113;-81
2022/09/11 11:47:09;;;;;;;6.45;1.65;;;589.70;2252.80;;;;;;5072083;28;20031;-84
2022/09/11 11:49:57;;;;;;;2.58;1.20;;;589.70;2176.00;;;;;;5081827;28;20071;-79
2022/09/11 11:52:55;;;;;;;3.50;1.20;;;614.40;2124.80;;;;;;5074338;28;20064;-78
2022/09/11 11:55:29;;;;;;;2.72;1.27;;;614.40;2124.80;;;;;;5054265;28;20029;-81
2022/09/11 11:58:11;;;;;;;1.50;1.00;;;614.50;2124.80;;;;;;5039393;28;20045;-87
2022/09/11 12:00:45;;;;;;;2.03;1.05;;;614.50;2124.80;;;;;;5058425;28;20037;-82
2022/09/11 12:03:36;;;;;;;3.00;1.23;;;614.50;2073.60;;;;;;5065160;28;20074;-80
2022/09/11 12:06:04;;;;;;;1.85;0.90;;;614.50;2073.60;;;;;;5061892;28;20032;-79
2022/09/11 12:08:30;;;;;;;1.42;1.10;;;614.60;2073.60;;;;;;5057027;28;20024;-80
2022/09/11 12:11:04;;;;;;;2.50;1.27;;;614.50;2099.20;;;;;;5042683;28;20025;-78
2022/09/11 12:13:34;;;;;;;3.08;1.00;;;614.50;2073.60;;;;;;5042840;28;20132;-77
2022/09/11 12:16:13;;;;;;;0.60;0.60;;;614.50;2099.20;;;;;;5038595;28;20476;-78
2022/09/11 12:18:41;;;;;;;2.30;0.90;;;614.70;2073.60;;;;;;5062276;28;20138;-78
2022/09/11 12:21:21;;;;;;;1.42;0.90;;;614.80;2048.00;;;;;;5061767;28;20074;-78
2022/09/11 12:23:47;;;;;;;8.30;1.15;;;614.80;2048.00;;;;;;5058983;28;20032;-78
2022/09/11 12:26:25;;;;;;;5.18;1.10;;;614.90;1971.20;;;;;;5064007;28;20391;-78
2022/09/11 12:29:10;;;;;;;3.47;0.93;;;615.00;1971.20;;;;;;5045482;28;20036;-77
2022/09/11 12:31:48;;;;;;;2.95;0.90;;;615.00;1971.20;;;;;;5044107;28;20021;-77
2022/09/11 12:34:38;;;;;;;2.85;1.17;;;615.10;1996.80;;;;;;5098711;28;20042;-77
2022/09/11 12:37:11;;;;;;;1.30;0.80;;;615.10;1920.00;;;;;;5073852;28;20052;-77
2022/09/11 12:39:52;;;;;;;1.70;1.10;;;615.20;1920.00;;;;;;5087376;28;20050;-78
2022/09/11 12:42:27;;;;;;;4.05;0.93;;;615.10;1945.60;;;;;;5077303;28;20024;-77
2022/09/11 12:44:55;;;;;;;3.65;1.38;;;615.00;2048.00;;;;;;5085535;28;20023;-78
2022/09/11 12:47:31;;;;;;;1.90;1.00;;;615.00;2048.00;;;;;;5093088;28;20026;-77